sensor_id;sensor_type;location;lat;lon;timestamp;P1;durP1;ratioP1;P2;durP2;ratioP2
35312;SDS011;21425;50.454;30.466;2023-05-29T00:00:35;7.40;;;2.45;;
35312;SDS011;21425;50.454;30.466;2023-05-29T00:03:02;6.65;;;2.90;;
35312;SDS011;21425;50.454;30.466;2023-05-29T00:05:29;5.18;;;2.50;;
35312;SDS011;21425;50.454;30.466;2023-05-29T00:07:55;6.70;;;2.85;;
35312;SDS011;21425;50.454;30.466;2023-05-29T00:10:21;6.28;;;3.10;;
35312;SDS011;21425;50.454;30.466;2023-05-29T00:12:47;5.65;;;2.75;;
35312;SDS011;21425;50.454;30.466;2023-05-29T00:15:13;5.72;;;2.95;;
35312;SDS011;21425;50.454;30.466;2023-05-29T00:17:39;6.32;;;2.65;;
35312;SDS011;21425;50.454;30.466;2023-05-29T00:20:06;15.63;;;2.97;;
35312;SDS011;21425;50.454;30.466;2023-05-29T00:22:36;10.93;;;3.40;;
35312;SDS011;21425;50.454;30.466;2023-05-29T00:25:06;13.48;;;3.10;;
35312;SDS011;21425;50.454;30.466;2023-05-29T00:27:32;5.28;;;2.25;;
35312;SDS011;21425;50.454;30.466;2023-05-29T00:30:01;5.43;;;2.83;;
35312;SDS011;21425;50.454;30.466;2023-05-29T00:32:27;6.13;;;2.60;;
35312;SDS011;21425;50.454;30.466;2023-05-29T00:34:54;4.43;;;2.30;;
35312;SDS011;21425;50.454;30.466;2023-05-29T00:37:20;8.63;;;2.70;;
35312;SDS011;21425;50.454;30.466;2023-05-29T00:39:47;7.13;;;3.00;;
35312;SDS011;21425;50.454;30.466;2023-05-29T00:42:13;5.28;;;2.67;;
35312;SDS011;21425;50.454;30.466;2023-05-29T00:44:39;5.88;;;2.13;;
35312;SDS011;21425;50.454;30.466;2023-05-29T00:47:05;9.40;;;2.90;;
35312;SDS011;21425;50.454;30.466;2023-05-29T00:49:31;4.13;;;2.72;;
35312;SDS011;21425;50.454;30.466;2023-05-29T00:51:57;7.18;;;2.80;;
35312;SDS011;21425;50.454;30.466;2023-05-29T00:54:27;5.38;;;2.75;;
35312;SDS011;21425;50.454;30.466;2023-05-29T00:56:55;7.57;;;2.53;;
35312;SDS011;21425;50.454;30.466;2023-05-29T00:59:22;5.22;;;2.60;;
35312;SDS011;21425;50.454;30.466;2023-05-29T01:01:48;4.43;;;2.40;;
35312;SDS011;21425;50.454;30.466;2023-05-29T01:04:15;5.25;;;2.90;;
35312;SDS011;21425;50.454;30.466;2023-05-29T01:06:42;5.00;;;2.30;;
35312;SDS011;21425;50.454;30.466;2023-05-29T01:09:09;4.45;;;2.20;;
35312;SDS011;21425;50.454;30.466;2023-05-29T01:17:17;5.10;;;1.98;;
35312;SDS011;21425;50.454;30.466;2023-05-29T01:20:07;8.38;;;2.70;;
35312;SDS011;21425;50.454;30.466;2023-05-29T01:22:43;5.88;;;2.55;;
35312;SDS011;21425;50.454;30.466;2023-05-29T01:28:33;8.77;;;2.58;;
35312;SDS011;21425;50.454;30.466;2023-05-29T01:31:06;7.80;;;2.47;;
35312;SDS011;21425;50.454;30.466;2023-05-29T01:33:32;4.50;;;2.47;;
35312;SDS011;21425;50.454;30.466;2023-05-29T01:35:58;7.25;;;2.53;;
35312;SDS011;21425;50.454;30.466;2023-05-29T01:38:24;7.43;;;2.50;;
35312;SDS011;21425;50.454;30.466;2023-05-29T01:40:50;3.85;;;2.45;;
35312;SDS011;21425;50.454;30.466;2023-05-29T01:43:16;6.25;;;2.00;;
35312;SDS011;21425;50.454;30.466;2023-05-29T01:45:43;8.18;;;2.70;;
35312;SDS011;21425;50.454;30.466;2023-05-29T01:48:09;5.68;;;2.33;;
35312;SDS011;21425;50.454;30.466;2023-05-29T01:50:35;6.47;;;2.40;;
35312;SDS011;21425;50.454;30.466;2023-05-29T01:53:02;5.05;;;2.45;;
35312;SDS011;21425;50.454;30.466;2023-05-29T01:55:28;5.53;;;2.45;;
35312;SDS011;21425;50.454;30.466;2023-05-29T01:57:54;4.15;;;2.03;;
35312;SDS011;21425;50.454;30.466;2023-05-29T02:00:21;9.65;;;2.78;;
35312;SDS011;21425;50.454;30.466;2023-05-29T02:02:47;4.95;;;2.30;;
35312;SDS011;21425;50.454;30.466;2023-05-29T02:05:13;4.07;;;2.30;;
35312;SDS011;21425;50.454;30.466;2023-05-29T02:07:39;4.95;;;2.35;;
35312;SDS011;21425;50.454;30.466;2023-05-29T02:10:05;5.07;;;2.50;;
35312;SDS011;21425;50.454;30.466;2023-05-29T02:12:32;5.60;;;2.65;;
35312;SDS011;21425;50.454;30.466;2023-05-29T02:14:58;4.10;;;2.30;;
35312;SDS011;21425;50.454;30.466;2023-05-29T02:17:24;7.45;;;2.90;;
35312;SDS011;21425;50.454;30.466;2023-05-29T02:19:50;4.35;;;2.10;;
35312;SDS011;21425;50.454;30.466;2023-05-29T02:22:17;4.90;;;2.30;;
35312;SDS011;21425;50.454;30.466;2023-05-29T02:24:43;3.65;;;2.42;;
35312;SDS011;21425;50.454;30.466;2023-05-29T02:27:09;10.88;;;2.65;;
35312;SDS011;21425;50.454;30.466;2023-05-29T02:29:35;6.40;;;2.45;;
35312;SDS011;21425;50.454;30.466;2023-05-29T02:32:01;8.43;;;2.97;;
35312;SDS011;21425;50.454;30.466;2023-05-29T02:34:27;14.15;;;2.80;;
35312;SDS011;21425;50.454;30.466;2023-05-29T02:36:54;6.65;;;2.53;;
35312;SDS011;21425;50.454;30.466;2023-05-29T02:39:20;6.50;;;2.70;;
35312;SDS011;21425;50.454;30.466;2023-05-29T02:41:46;4.22;;;2.50;;
35312;SDS011;21425;50.454;30.466;2023-05-29T02:44:12;4.45;;;2.20;;
35312;SDS011;21425;50.454;30.466;2023-05-29T02:46:38;5.68;;;2.63;;
35312;SDS011;21425;50.454;30.466;2023-05-29T02:49:04;6.55;;;2.88;;
35312;SDS011;21425;50.454;30.466;2023-05-29T02:51:30;5.32;;;3.05;;
35312;SDS011;21425;50.454;30.466;2023-05-29T02:53:57;6.55;;;3.33;;
35312;SDS011;21425;50.454;30.466;2023-05-29T02:56:23;7.85;;;3.45;;
35312;SDS011;21425;50.454;30.466;2023-05-29T02:58:52;7.97;;;3.92;;
35312;SDS011;21425;50.454;30.466;2023-05-29T03:01:18;15.52;;;4.72;;
35312;SDS011;21425;50.454;30.466;2023-05-29T03:03:44;9.38;;;4.57;;
35312;SDS011;21425;50.454;30.466;2023-05-29T03:06:10;10.20;;;3.95;;
35312;SDS011;21425;50.454;30.466;2023-05-29T03:08:37;4.15;;;2.50;;
35312;SDS011;21425;50.454;30.466;2023-05-29T03:11:06;5.32;;;2.53;;
35312;SDS011;21425;50.454;30.466;2023-05-29T03:13:34;4.22;;;2.28;;
35312;SDS011;21425;50.454;30.466;2023-05-29T03:16:01;3.97;;;2.25;;
35312;SDS011;21425;50.454;30.466;2023-05-29T03:18:27;4.88;;;2.30;;
35312;SDS011;21425;50.454;30.466;2023-05-29T03:20:53;5.10;;;2.20;;
35312;SDS011;21425;50.454;30.466;2023-05-29T03:23:19;5.97;;;2.83;;
35312;SDS011;21425;50.454;30.466;2023-05-29T03:25:46;7.30;;;2.75;;
35312;SDS011;21425;50.454;30.466;2023-05-29T03:28:11;6.13;;;2.70;;
35312;SDS011;21425;50.454;30.466;2023-05-29T03:30:37;4.28;;;2.20;;
35312;SDS011;21425;50.454;30.466;2023-05-29T03:33:03;9.60;;;2.22;;
35312;SDS011;21425;50.454;30.466;2023-05-29T03:35:30;4.25;;;2.17;;
35312;SDS011;21425;50.454;30.466;2023-05-29T03:37:56;5.40;;;2.60;;
35312;SDS011;21425;50.454;30.466;2023-05-29T03:40:22;6.05;;;2.30;;
35312;SDS011;21425;50.454;30.466;2023-05-29T03:42:48;3.00;;;1.90;;
35312;SDS011;21425;50.454;30.466;2023-05-29T03:45:14;3.67;;;2.30;;
35312;SDS011;21425;50.454;30.466;2023-05-29T03:47:40;6.93;;;2.67;;
35312;SDS011;21425;50.454;30.466;2023-05-29T03:50:06;5.22;;;2.85;;
35312;SDS011;21425;50.454;30.466;2023-05-29T03:52:33;9.52;;;2.45;;
35312;SDS011;21425;50.454;30.466;2023-05-29T03:54:59;3.55;;;2.22;;
35312;SDS011;21425;50.454;30.466;2023-05-29T03:57:25;9.93;;;2.10;;
35312;SDS011;21425;50.454;30.466;2023-05-29T03:59:51;4.03;;;1.98;;
35312;SDS011;21425;50.454;30.466;2023-05-29T04:02:17;5.82;;;2.30;;
35312;SDS011;21425;50.454;30.466;2023-05-29T04:04:43;4.47;;;1.77;;
35312;SDS011;21425;50.454;30.466;2023-05-29T04:07:09;7.55;;;2.50;;
35312;SDS011;21425;50.454;30.466;2023-05-29T04:09:35;4.20;;;2.20;;
35312;SDS011;21425;50.454;30.466;2023-05-29T04:12:02;6.45;;;1.90;;
35312;SDS011;21425;50.454;30.466;2023-05-29T04:14:28;4.90;;;2.60;;
35312;SDS011;21425;50.454;30.466;2023-05-29T04:16:55;4.70;;;2.22;;
35312;SDS011;21425;50.454;30.466;2023-05-29T04:19:21;7.70;;;3.15;;
35312;SDS011;21425;50.454;30.466;2023-05-29T04:21:47;6.63;;;2.78;;
35312;SDS011;21425;50.454;30.466;2023-05-29T04:24:14;9.88;;;2.22;;
35312;SDS011;21425;50.454;30.466;2023-05-29T04:26:40;9.02;;;2.60;;
35312;SDS011;21425;50.454;30.466;2023-05-29T04:29:06;5.20;;;2.60;;
35312;SDS011;21425;50.454;30.466;2023-05-29T04:31:32;8.02;;;2.72;;
35312;SDS011;21425;50.454;30.466;2023-05-29T04:33:58;11.18;;;2.60;;
35312;SDS011;21425;50.454;30.466;2023-05-29T04:36:25;12.20;;;3.45;;
35312;SDS011;21425;50.454;30.466;2023-05-29T04:38:54;10.25;;;3.00;;
35312;SDS011;21425;50.454;30.466;2023-05-29T04:41:20;9.90;;;2.97;;
35312;SDS011;21425;50.454;30.466;2023-05-29T04:43:48;8.43;;;2.55;;
35312;SDS011;21425;50.454;30.466;2023-05-29T04:46:15;9.00;;;3.10;;
35312;SDS011;21425;50.454;30.466;2023-05-29T04:48:41;6.60;;;2.67;;
35312;SDS011;21425;50.454;30.466;2023-05-29T04:51:08;7.28;;;2.95;;
35312;SDS011;21425;50.454;30.466;2023-05-29T04:53:38;8.35;;;2.30;;
35312;SDS011;21425;50.454;30.466;2023-05-29T04:56:08;5.28;;;2.42;;
35312;SDS011;21425;50.454;30.466;2023-05-29T04:58:34;6.00;;;3.05;;
35312;SDS011;21425;50.454;30.466;2023-05-29T05:01:00;8.93;;;2.55;;
35312;SDS011;21425;50.454;30.466;2023-05-29T05:03:28;6.45;;;2.58;;
35312;SDS011;21425;50.454;30.466;2023-05-29T05:05:54;5.15;;;2.55;;
35312;SDS011;21425;50.454;30.466;2023-05-29T05:08:19;8.90;;;3.03;;
35312;SDS011;21425;50.454;30.466;2023-05-29T05:10:45;6.43;;;1.95;;
35312;SDS011;21425;50.454;30.466;2023-05-29T05:13:11;5.45;;;1.95;;
35312;SDS011;21425;50.454;30.466;2023-05-29T05:15:37;4.45;;;2.15;;
35312;SDS011;21425;50.454;30.466;2023-05-29T05:18:03;8.57;;;2.35;;
35312;SDS011;21425;50.454;30.466;2023-05-29T05:20:29;5.50;;;2.08;;
35312;SDS011;21425;50.454;30.466;2023-05-29T05:22:55;4.43;;;2.22;;
35312;SDS011;21425;50.454;30.466;2023-05-29T05:25:21;5.68;;;1.98;;
35312;SDS011;21425;50.454;30.466;2023-05-29T05:27:47;3.65;;;2.17;;
35312;SDS011;21425;50.454;30.466;2023-05-29T05:30:13;5.72;;;2.25;;
35312;SDS011;21425;50.454;30.466;2023-05-29T05:32:39;3.60;;;2.00;;
35312;SDS011;21425;50.454;30.466;2023-05-29T05:35:05;5.30;;;1.63;;
35312;SDS011;21425;50.454;30.466;2023-05-29T05:37:32;3.95;;;1.80;;
35312;SDS011;21425;50.454;30.466;2023-05-29T05:39:58;6.25;;;1.75;;
35312;SDS011;21425;50.454;30.466;2023-05-29T05:42:25;6.38;;;1.80;;
35312;SDS011;21425;50.454;30.466;2023-05-29T05:44:52;4.85;;;2.28;;
35312;SDS011;21425;50.454;30.466;2023-05-29T05:47:17;4.00;;;1.55;;
35312;SDS011;21425;50.454;30.466;2023-05-29T05:49:43;5.05;;;1.92;;
35312;SDS011;21425;50.454;30.466;2023-05-29T05:52:09;6.00;;;2.15;;
35312;SDS011;21425;50.454;30.466;2023-05-29T05:54:35;5.70;;;1.88;;
35312;SDS011;21425;50.454;30.466;2023-05-29T05:57:01;5.18;;;1.92;;
35312;SDS011;21425;50.454;30.466;2023-05-29T05:59:28;2.75;;;1.55;;
35312;SDS011;21425;50.454;30.466;2023-05-29T06:01:54;8.00;;;1.92;;
35312;SDS011;21425;50.454;30.466;2023-05-29T06:04:21;5.00;;;1.77;;
35312;SDS011;21425;50.454;30.466;2023-05-29T06:06:47;4.28;;;1.77;;
35312;SDS011;21425;50.454;30.466;2023-05-29T06:09:13;7.45;;;2.15;;
35312;SDS011;21425;50.454;30.466;2023-05-29T06:11:39;3.72;;;1.60;;
35312;SDS011;21425;50.454;30.466;2023-05-29T06:14:05;3.55;;;1.77;;
35312;SDS011;21425;50.454;30.466;2023-05-29T06:16:31;5.13;;;2.15;;
35312;SDS011;21425;50.454;30.466;2023-05-29T06:18:57;8.23;;;2.05;;
35312;SDS011;21425;50.454;30.466;2023-05-29T06:21:23;7.70;;;2.10;;
35312;SDS011;21425;50.454;30.466;2023-05-29T06:23:49;6.00;;;2.13;;
35312;SDS011;21425;50.454;30.466;2023-05-29T06:26:15;4.60;;;2.03;;
35312;SDS011;21425;50.454;30.466;2023-05-29T06:28:41;6.35;;;2.65;;
35312;SDS011;21425;50.454;30.466;2023-05-29T06:31:07;6.38;;;2.10;;
35312;SDS011;21425;50.454;30.466;2023-05-29T06:33:33;6.55;;;2.47;;
35312;SDS011;21425;50.454;30.466;2023-05-29T06:35:59;5.85;;;2.33;;
35312;SDS011;21425;50.454;30.466;2023-05-29T06:38:25;8.68;;;2.22;;
35312;SDS011;21425;50.454;30.466;2023-05-29T06:40:51;9.70;;;2.42;;
35312;SDS011;21425;50.454;30.466;2023-05-29T06:43:17;7.38;;;2.60;;
35312;SDS011;21425;50.454;30.466;2023-05-29T06:45:43;4.97;;;2.40;;
35312;SDS011;21425;50.454;30.466;2023-05-29T06:48:09;5.30;;;2.38;;
35312;SDS011;21425;50.454;30.466;2023-05-29T06:50:35;11.57;;;2.60;;
35312;SDS011;21425;50.454;30.466;2023-05-29T06:53:01;4.57;;;2.05;;
35312;SDS011;21425;50.454;30.466;2023-05-29T06:55:27;6.38;;;1.92;;
35312;SDS011;21425;50.454;30.466;2023-05-29T06:57:53;4.40;;;1.77;;
35312;SDS011;21425;50.454;30.466;2023-05-29T07:00:19;6.72;;;1.83;;
35312;SDS011;21425;50.454;30.466;2023-05-29T07:02:45;2.55;;;1.77;;
35312;SDS011;21425;50.454;30.466;2023-05-29T07:05:11;3.83;;;1.98;;
35312;SDS011;21425;50.454;30.466;2023-05-29T07:07:37;4.75;;;1.80;;
35312;SDS011;21425;50.454;30.466;2023-05-29T07:10:03;4.63;;;1.90;;
35312;SDS011;21425;50.454;30.466;2023-05-29T07:12:31;4.03;;;1.45;;
35312;SDS011;21425;50.454;30.466;2023-05-29T07:14:57;4.35;;;1.17;;
35312;SDS011;21425;50.454;30.466;2023-05-29T07:17:23;2.10;;;1.20;;
35312;SDS011;21425;50.454;30.466;2023-05-29T07:19:49;4.85;;;1.17;;
35312;SDS011;21425;50.454;30.466;2023-05-29T07:22:15;5.07;;;1.45;;
35312;SDS011;21425;50.454;30.466;2023-05-29T07:24:41;6.68;;;1.20;;
35312;SDS011;21425;50.454;30.466;2023-05-29T07:27:07;3.90;;;1.40;;
35312;SDS011;21425;50.454;30.466;2023-05-29T07:29:33;1.38;;;0.70;;
35312;SDS011;21425;50.454;30.466;2023-05-29T07:31:59;2.78;;;1.13;;
35312;SDS011;21425;50.454;30.466;2023-05-29T07:34:25;2.63;;;1.20;;
35312;SDS011;21425;50.454;30.466;2023-05-29T07:36:57;2.75;;;1.40;;
35312;SDS011;21425;50.454;30.466;2023-05-29T07:39:24;4.15;;;1.17;;
35312;SDS011;21425;50.454;30.466;2023-05-29T07:41:51;3.42;;;1.40;;
35312;SDS011;21425;50.454;30.466;2023-05-29T07:44:17;4.97;;;1.35;;
35312;SDS011;21425;50.454;30.466;2023-05-29T07:46:43;4.28;;;1.73;;
35312;SDS011;21425;50.454;30.466;2023-05-29T07:49:09;6.85;;;1.88;;
35312;SDS011;21425;50.454;30.466;2023-05-29T07:51:35;4.30;;;1.20;;
35312;SDS011;21425;50.454;30.466;2023-05-29T07:54:01;5.00;;;1.58;;
35312;SDS011;21425;50.454;30.466;2023-05-29T07:56:27;5.88;;;1.55;;
35312;SDS011;21425;50.454;30.466;2023-05-29T07:58:54;3.58;;;1.35;;
35312;SDS011;21425;50.454;30.466;2023-05-29T08:01:20;10.65;;;1.63;;
35312;SDS011;21425;50.454;30.466;2023-05-29T08:03:46;5.80;;;1.73;;
35312;SDS011;21425;50.454;30.466;2023-05-29T08:06:13;3.78;;;1.45;;
35312;SDS011;21425;50.454;30.466;2023-05-29T08:08:39;4.47;;;1.63;;
35312;SDS011;21425;50.454;30.466;2023-05-29T08:11:05;9.02;;;1.67;;
35312;SDS011;21425;50.454;30.466;2023-05-29T08:13:31;3.25;;;1.58;;
35312;SDS011;21425;50.454;30.466;2023-05-29T08:15:57;4.80;;;1.65;;
35312;SDS011;21425;50.454;30.466;2023-05-29T08:18:26;4.07;;;1.80;;
35312;SDS011;21425;50.454;30.466;2023-05-29T08:20:52;8.27;;;1.67;;
35312;SDS011;21425;50.454;30.466;2023-05-29T08:23:18;4.88;;;1.40;;
35312;SDS011;21425;50.454;30.466;2023-05-29T08:25:44;7.00;;;1.75;;
35312;SDS011;21425;50.454;30.466;2023-05-29T08:28:10;4.45;;;1.83;;
35312;SDS011;21425;50.454;30.466;2023-05-29T08:30:36;3.78;;;1.40;;
35312;SDS011;21425;50.454;30.466;2023-05-29T08:33:03;5.68;;;1.30;;
35312;SDS011;21425;50.454;30.466;2023-05-29T08:35:29;3.78;;;1.27;;
35312;SDS011;21425;50.454;30.466;2023-05-29T08:37:55;2.28;;;1.30;;
35312;SDS011;21425;50.454;30.466;2023-05-29T08:40:21;6.68;;;1.33;;
35312;SDS011;21425;50.454;30.466;2023-05-29T08:42:47;7.00;;;1.27;;
35312;SDS011;21425;50.454;30.466;2023-05-29T08:45:20;5.50;;;1.27;;
35312;SDS011;21425;50.454;30.466;2023-05-29T08:47:48;7.70;;;1.15;;
35312;SDS011;21425;50.454;30.466;2023-05-29T08:50:17;4.53;;;1.48;;
35312;SDS011;21425;50.454;30.466;2023-05-29T08:52:44;3.95;;;1.52;;
35312;SDS011;21425;50.454;30.466;2023-05-29T08:55:10;5.38;;;1.60;;
35312;SDS011;21425;50.454;30.466;2023-05-29T08:57:36;6.72;;;1.95;;
35312;SDS011;21425;50.454;30.466;2023-05-29T09:00:04;3.22;;;1.75;;
35312;SDS011;21425;50.454;30.466;2023-05-29T09:02:36;5.50;;;1.60;;
35312;SDS011;21425;50.454;30.466;2023-05-29T09:05:03;7.70;;;1.70;;
35312;SDS011;21425;50.454;30.466;2023-05-29T09:07:29;3.83;;;1.33;;
35312;SDS011;21425;50.454;30.466;2023-05-29T09:09:56;5.63;;;1.35;;
35312;SDS011;21425;50.454;30.466;2023-05-29T09:12:23;4.82;;;1.60;;
35312;SDS011;21425;50.454;30.466;2023-05-29T09:14:50;2.38;;;1.27;;
35312;SDS011;21425;50.454;30.466;2023-05-29T09:17:16;5.30;;;1.67;;
35312;SDS011;21425;50.454;30.466;2023-05-29T09:19:42;3.28;;;1.35;;
35312;SDS011;21425;50.454;30.466;2023-05-29T09:22:09;5.68;;;1.30;;
35312;SDS011;21425;50.454;30.466;2023-05-29T09:24:35;4.78;;;1.38;;
35312;SDS011;21425;50.454;30.466;2023-05-29T09:27:02;3.40;;;1.38;;
35312;SDS011;21425;50.454;30.466;2023-05-29T09:29:39;2.28;;;1.10;;
35312;SDS011;21425;50.454;30.466;2023-05-29T09:32:10;3.70;;;1.10;;
35312;SDS011;21425;50.454;30.466;2023-05-29T09:34:37;3.17;;;1.63;;
35312;SDS011;21425;50.454;30.466;2023-05-29T09:37:05;6.55;;;1.63;;
35312;SDS011;21425;50.454;30.466;2023-05-29T09:42:09;2.83;;;1.30;;
35312;SDS011;21425;50.454;30.466;2023-05-29T09:44:35;3.55;;;1.20;;
35312;SDS011;21425;50.454;30.466;2023-05-29T09:47:01;4.05;;;1.10;;
35312;SDS011;21425;50.454;30.466;2023-05-29T09:49:27;5.45;;;1.35;;
35312;SDS011;21425;50.454;30.466;2023-05-29T09:51:54;3.55;;;1.00;;
35312;SDS011;21425;50.454;30.466;2023-05-29T09:54:20;4.63;;;1.30;;
35312;SDS011;21425;50.454;30.466;2023-05-29T09:56:47;4.03;;;1.20;;
35312;SDS011;21425;50.454;30.466;2023-05-29T09:59:14;2.03;;;1.20;;
35312;SDS011;21425;50.454;30.466;2023-05-29T10:01:41;2.20;;;1.10;;
35312;SDS011;21425;50.454;30.466;2023-05-29T10:04:07;2.15;;;1.10;;
35312;SDS011;21425;50.454;30.466;2023-05-29T10:06:35;2.03;;;1.10;;
35312;SDS011;21425;50.454;30.466;2023-05-29T10:09:02;1.65;;;0.98;;
35312;SDS011;21425;50.454;30.466;2023-05-29T10:11:28;2.97;;;1.20;;
35312;SDS011;21425;50.454;30.466;2023-05-29T10:13:56;3.28;;;1.10;;
35312;SDS011;21425;50.454;30.466;2023-05-29T10:16:23;2.75;;;1.20;;
35312;SDS011;21425;50.454;30.466;2023-05-29T10:18:53;4.85;;;1.38;;
35312;SDS011;21425;50.454;30.466;2023-05-29T10:21:20;7.07;;;1.13;;
35312;SDS011;21425;50.454;30.466;2023-05-29T10:23:47;2.17;;;1.08;;
35312;SDS011;21425;50.454;30.466;2023-05-29T10:26:15;2.30;;;1.08;;
35312;SDS011;21425;50.454;30.466;2023-05-29T10:28:53;4.78;;;1.02;;
35312;SDS011;21425;50.454;30.466;2023-05-29T10:31:42;9.65;;;1.50;;
35312;SDS011;21425;50.454;30.466;2023-05-29T10:34:14;3.75;;;1.35;;
35312;SDS011;21425;50.454;30.466;2023-05-29T10:36:45;1.73;;;1.10;;
35312;SDS011;21425;50.454;30.466;2023-05-29T10:39:20;4.00;;;1.20;;
35312;SDS011;21425;50.454;30.466;2023-05-29T10:41:46;5.10;;;1.30;;
35312;SDS011;21425;50.454;30.466;2023-05-29T10:49:23;2.92;;;1.25;;
35312;SDS011;21425;50.454;30.466;2023-05-29T10:51:49;4.80;;;1.25;;
35312;SDS011;21425;50.454;30.466;2023-05-29T10:54:16;3.65;;;1.33;;
35312;SDS011;21425;50.454;30.466;2023-05-29T10:56:42;2.60;;;1.00;;
35312;SDS011;21425;50.454;30.466;2023-05-29T10:59:10;4.03;;;1.15;;
35312;SDS011;21425;50.454;30.466;2023-05-29T11:01:38;6.20;;;1.58;;
35312;SDS011;21425;50.454;30.466;2023-05-29T11:06:46;2.95;;;1.45;;
35312;SDS011;21425;50.454;30.466;2023-05-29T11:09:28;5.72;;;1.88;;
35312;SDS011;21425;50.454;30.466;2023-05-29T11:12:10;4.50;;;1.38;;
35312;SDS011;21425;50.454;30.466;2023-05-29T11:20:04;4.95;;;1.63;;
35312;SDS011;21425;50.454;30.466;2023-05-29T11:22:56;5.80;;;1.35;;
35312;SDS011;21425;50.454;30.466;2023-05-29T11:25:17;2.47;;;1.20;;
35312;SDS011;21425;50.454;30.466;2023-05-29T11:27:43;5.90;;;1.73;;
35312;SDS011;21425;50.454;30.466;2023-05-29T11:30:10;7.47;;;1.92;;
35312;SDS011;21425;50.454;30.466;2023-05-29T11:32:37;6.15;;;1.50;;
35312;SDS011;21425;50.454;30.466;2023-05-29T11:35:07;3.72;;;1.60;;
35312;SDS011;21425;50.454;30.466;2023-05-29T11:37:34;3.95;;;1.50;;
35312;SDS011;21425;50.454;30.466;2023-05-29T11:40:02;5.45;;;1.30;;
35312;SDS011;21425;50.454;30.466;2023-05-29T11:42:30;5.85;;;1.70;;
35312;SDS011;21425;50.454;30.466;2023-05-29T11:45:09;6.53;;;1.90;;
35312;SDS011;21425;50.454;30.466;2023-05-29T11:47:50;5.68;;;1.90;;
35312;SDS011;21425;50.454;30.466;2023-05-29T11:50:20;4.20;;;1.45;;
35312;SDS011;21425;50.454;30.466;2023-05-29T11:52:46;3.47;;;1.30;;
35312;SDS011;21425;50.454;30.466;2023-05-29T11:55:12;7.93;;;1.70;;
35312;SDS011;21425;50.454;30.466;2023-05-29T11:57:38;6.65;;;1.58;;
35312;SDS011;21425;50.454;30.466;2023-05-29T12:00:04;3.80;;;1.20;;
35312;SDS011;21425;50.454;30.466;2023-05-29T12:02:37;6.10;;;1.50;;
35312;SDS011;21425;50.454;30.466;2023-05-29T12:05:03;4.78;;;1.95;;
35312;SDS011;21425;50.454;30.466;2023-05-29T12:07:30;4.10;;;2.08;;
35312;SDS011;21425;50.454;30.466;2023-05-29T12:09:56;3.97;;;1.90;;
35312;SDS011;21425;50.454;30.466;2023-05-29T12:12:23;5.97;;;2.05;;
35312;SDS011;21425;50.454;30.466;2023-05-29T12:14:51;4.93;;;1.80;;
35312;SDS011;21425;50.454;30.466;2023-05-29T12:17:18;3.30;;;1.70;;
35312;SDS011;21425;50.454;30.466;2023-05-29T12:19:47;6.57;;;1.70;;
35312;SDS011;21425;50.454;30.466;2023-05-29T12:22:16;3.20;;;1.42;;
35312;SDS011;21425;50.454;30.466;2023-05-29T12:24:42;5.72;;;1.40;;
35312;SDS011;21425;50.454;30.466;2023-05-29T12:27:08;2.42;;;1.05;;
35312;SDS011;21425;50.454;30.466;2023-05-29T12:29:34;3.40;;;1.30;;
35312;SDS011;21425;50.454;30.466;2023-05-29T12:32:00;5.60;;;1.38;;
35312;SDS011;21425;50.454;30.466;2023-05-29T12:34:26;3.45;;;1.48;;
35312;SDS011;21425;50.454;30.466;2023-05-29T12:37:05;7.13;;;1.35;;
35312;SDS011;21425;50.454;30.466;2023-05-29T12:39:34;4.15;;;1.40;;
35312;SDS011;21425;50.454;30.466;2023-05-29T12:42:01;5.28;;;1.10;;
35312;SDS011;21425;50.454;30.466;2023-05-29T12:44:27;3.30;;;1.60;;
35312;SDS011;21425;50.454;30.466;2023-05-29T12:46:55;5.30;;;1.00;;
35312;SDS011;21425;50.454;30.466;2023-05-29T12:49:21;3.45;;;2.05;;
35312;SDS011;21425;50.454;30.466;2023-05-29T12:51:50;3.70;;;1.55;;
35312;SDS011;21425;50.454;30.466;2023-05-29T12:54:17;4.40;;;1.17;;
35312;SDS011;21425;50.454;30.466;2023-05-29T12:56:43;2.35;;;1.27;;
35312;SDS011;21425;50.454;30.466;2023-05-29T12:59:11;2.78;;;1.40;;
35312;SDS011;21425;50.454;30.466;2023-05-29T13:01:37;2.38;;;1.15;;
35312;SDS011;21425;50.454;30.466;2023-05-29T13:04:04;4.60;;;1.23;;
35312;SDS011;21425;50.454;30.466;2023-05-29T13:06:32;1.90;;;0.88;;
35312;SDS011;21425;50.454;30.466;2023-05-29T13:09:03;5.93;;;1.05;;
35312;SDS011;21425;50.454;30.466;2023-05-29T13:11:30;3.67;;;1.02;;
35312;SDS011;21425;50.454;30.466;2023-05-29T13:13:56;2.33;;;0.90;;
35312;SDS011;21425;50.454;30.466;2023-05-29T13:16:22;8.95;;;2.17;;
35312;SDS011;21425;50.454;30.466;2023-05-29T13:18:48;1.60;;;0.90;;
35312;SDS011;21425;50.454;30.466;2023-05-29T13:21:14;3.17;;;1.30;;
35312;SDS011;21425;50.454;30.466;2023-05-29T13:23:40;2.63;;;1.08;;
35312;SDS011;21425;50.454;30.466;2023-05-29T13:26:06;2.28;;;1.10;;
35312;SDS011;21425;50.454;30.466;2023-05-29T13:28:32;6.47;;;1.05;;
35312;SDS011;21425;50.454;30.466;2023-05-29T13:30:58;3.00;;;1.23;;
35312;SDS011;21425;50.454;30.466;2023-05-29T13:33:24;4.03;;;1.30;;
35312;SDS011;21425;50.454;30.466;2023-05-29T13:35:51;3.95;;;1.23;;
35312;SDS011;21425;50.454;30.466;2023-05-29T13:38:16;2.80;;;1.13;;
35312;SDS011;21425;50.454;30.466;2023-05-29T13:40:42;4.43;;;2.40;;
35312;SDS011;21425;50.454;30.466;2023-05-29T13:43:08;1.98;;;1.10;;
35312;SDS011;21425;50.454;30.466;2023-05-29T13:45:35;1.85;;;1.13;;
35312;SDS011;21425;50.454;30.466;2023-05-29T13:48:01;4.03;;;1.40;;
35312;SDS011;21425;50.454;30.466;2023-05-29T13:50:27;3.38;;;1.00;;
35312;SDS011;21425;50.454;30.466;2023-05-29T13:52:53;2.45;;;1.05;;
35312;SDS011;21425;50.454;30.466;2023-05-29T13:55:19;2.05;;;0.90;;
35312;SDS011;21425;50.454;30.466;2023-05-29T13:57:45;3.17;;;1.40;;
35312;SDS011;21425;50.454;30.466;2023-05-29T14:00:12;2.65;;;1.02;;
35312;SDS011;21425;50.454;30.466;2023-05-29T14:02:38;2.78;;;1.05;;
35312;SDS011;21425;50.454;30.466;2023-05-29T14:05:05;1.25;;;0.85;;
35312;SDS011;21425;50.454;30.466;2023-05-29T14:07:31;7.97;;;1.45;;
35312;SDS011;21425;50.454;30.466;2023-05-29T14:09:57;1.23;;;1.10;;
35312;SDS011;21425;50.454;30.466;2023-05-29T14:12:23;3.78;;;1.30;;
35312;SDS011;21425;50.454;30.466;2023-05-29T14:14:49;2.45;;;1.20;;
35312;SDS011;21425;50.454;30.466;2023-05-29T14:17:15;2.05;;;1.33;;
35312;SDS011;21425;50.454;30.466;2023-05-29T14:19:42;2.67;;;1.30;;
35312;SDS011;21425;50.454;30.466;2023-05-29T14:22:10;2.90;;;1.25;;
35312;SDS011;21425;50.454;30.466;2023-05-29T14:24:36;1.80;;;1.20;;
35312;SDS011;21425;50.454;30.466;2023-05-29T14:27:02;3.60;;;1.20;;
35312;SDS011;21425;50.454;30.466;2023-05-29T14:29:28;11.98;;;1.60;;
35312;SDS011;21425;50.454;30.466;2023-05-29T14:31:54;6.22;;;1.30;;
35312;SDS011;21425;50.454;30.466;2023-05-29T14:34:20;2.95;;;1.20;;
35312;SDS011;21425;50.454;30.466;2023-05-29T14:36:46;4.35;;;1.10;;
35312;SDS011;21425;50.454;30.466;2023-05-29T14:39:12;3.25;;;1.40;;
35312;SDS011;21425;50.454;30.466;2023-05-29T14:41:38;2.53;;;1.20;;
35312;SDS011;21425;50.454;30.466;2023-05-29T14:44:03;1.60;;;1.08;;
35312;SDS011;21425;50.454;30.466;2023-05-29T14:46:29;4.10;;;1.13;;
35312;SDS011;21425;50.454;30.466;2023-05-29T14:48:58;2.53;;;1.17;;
35312;SDS011;21425;50.454;30.466;2023-05-29T14:51:24;2.40;;;1.13;;
35312;SDS011;21425;50.454;30.466;2023-05-29T14:53:51;3.40;;;1.27;;
35312;SDS011;21425;50.454;30.466;2023-05-29T14:56:17;2.10;;;1.30;;